sensor_id;sensor_type;location;lat;lon;timestamp;pressure;altitude;pressure_sealevel;temperature;humidity
60611;BME280;46439;51.164;13.572;2023-04-03T00:01:35;101155.63;;;2.67;80.10
60611;BME280;46439;51.164;13.572;2023-04-03T00:04:06;101154.06;;;2.66;80.05
60611;BME280;46439;51.164;13.572;2023-04-03T00:06:35;101155.34;;;2.63;79.90
60611;BME280;46439;51.164;13.572;2023-04-03T00:09:03;101154.88;;;2.62;79.84
60611;BME280;46439;51.164;13.572;2023-04-03T00:11:32;101161.19;;;2.61;79.75
60611;BME280;46439;51.164;13.572;2023-04-03T00:14:01;101162.92;;;2.59;79.61
60611;BME280;46439;51.164;13.572;2023-04-03T00:16:29;101162.04;;;2.53;79.69
60611;BME280;46439;51.164;13.572;2023-04-03T00:18:58;101163.83;;;2.50;79.57
60611;BME280;46439;51.164;13.572;2023-04-03T00:21:26;101166.66;;;2.47;79.67
60611;BME280;46439;51.164;13.572;2023-04-03T00:23:55;101169.20;;;2.44;79.47
60611;BME280;46439;51.164;13.572;2023-04-03T00:26:23;101172.71;;;2.39;79.12
60611;BME280;46439;51.164;13.572;2023-04-03T00:28:52;101170.67;;;2.31;79.19
60611;BME280;46439;51.164;13.572;2023-04-03T00:31:21;101168.96;;;2.27;79.20
60611;BME280;46439;51.164;13.572;2023-04-03T00:33:49;101171.52;;;2.26;79.28
60611;BME280;46439;51.164;13.572;2023-04-03T00:36:18;101174.73;;;2.26;79.33
60611;BME280;46439;51.164;13.572;2023-04-03T00:38:47;101173.80;;;2.24;79.42
60611;BME280;46439;51.164;13.572;2023-04-03T00:41:15;101174.19;;;2.20;78.84
60611;BME280;46439;51.164;13.572;2023-04-03T00:43:43;101178.20;;;2.16;78.94
60611;BME280;46439;51.164;13.572;2023-04-03T00:46:13;101176.19;;;2.11;78.93
60611;BME280;46439;51.164;13.572;2023-04-03T00:48:43;101174.73;;;2.09;78.91
60611;BME280;46439;51.164;13.572;2023-04-03T00:51:16;101176.95;;;2.10;79.18
60611;BME280;46439;51.164;13.572;2023-04-03T00:53:48;101179.95;;;2.08;78.78
60611;BME280;46439;51.164;13.572;2023-04-03T00:56:19;101180.40;;;2.06;79.02
60611;BME280;46439;51.164;13.572;2023-04-03T00:58:53;101181.30;;;2.03;78.97
60611;BME280;46439;51.164;13.572;2023-04-03T01:01:25;101184.17;;;1.99;78.83
60611;BME280;46439;51.164;13.572;2023-04-03T01:03:55;101184.21;;;1.96;79.06
60611;BME280;46439;51.164;13.572;2023-04-03T01:06:26;101188.17;;;1.92;78.69
60611;BME280;46439;51.164;13.572;2023-04-03T01:08:56;101188.30;;;1.87;78.40
60611;BME280;46439;51.164;13.572;2023-04-03T01:11:25;101192.86;;;1.88;78.64
60611;BME280;46439;51.164;13.572;2023-04-03T01:13:54;101194.54;;;1.87;78.78
60611;BME280;46439;51.164;13.572;2023-04-03T01:16:23;101193.63;;;1.84;78.77
60611;BME280;46439;51.164;13.572;2023-04-03T01:18:51;101194.73;;;1.83;78.70
60611;BME280;46439;51.164;13.572;2023-04-03T01:22:04;101194.63;;;1.82;78.60
60611;BME280;46439;51.164;13.572;2023-04-03T01:24:39;101200.94;;;1.83;78.72
60611;BME280;46439;51.164;13.572;2023-04-03T01:27:09;101205.67;;;1.84;78.73
60611;BME280;46439;51.164;13.572;2023-04-03T01:29:38;101206.20;;;1.85;78.61
60611;BME280;46439;51.164;13.572;2023-04-03T01:32:08;101207.98;;;1.85;78.67
60611;BME280;46439;51.164;13.572;2023-04-03T01:34:36;101214.29;;;1.83;78.66
60611;BME280;46439;51.164;13.572;2023-04-03T01:37:05;101215.26;;;1.82;78.62
60611;BME280;46439;51.164;13.572;2023-04-03T01:39:34;101218.41;;;1.79;78.62
60611;BME280;46439;51.164;13.572;2023-04-03T01:42:02;101217.87;;;1.82;78.68
60611;BME280;46439;51.164;13.572;2023-04-03T01:44:32;101227.17;;;1.87;78.55
60611;BME280;46439;51.164;13.572;2023-04-03T01:47:01;101231.10;;;1.84;78.41
60611;BME280;46439;51.164;13.572;2023-04-03T01:49:29;101230.08;;;1.77;78.49
60611;BME280;46439;51.164;13.572;2023-04-03T01:51:58;101233.05;;;1.72;78.19
60611;BME280;46439;51.164;13.572;2023-04-03T01:54:26;101239.02;;;1.73;78.41
60611;BME280;46439;51.164;13.572;2023-04-03T01:56:55;101241.66;;;1.73;78.31
60611;BME280;46439;51.164;13.572;2023-04-03T01:59:23;101244.62;;;1.71;78.29
60611;BME280;46439;51.164;13.572;2023-04-03T02:01:52;101245.02;;;1.70;78.29
60611;BME280;46439;51.164;13.572;2023-04-03T02:04:20;101249.39;;;1.65;78.07
60611;BME280;46439;51.164;13.572;2023-04-03T02:07:08;101246.86;;;1.66;78.39
60611;BME280;46439;51.164;13.572;2023-04-03T02:09:40;101253.09;;;1.68;78.33
60611;BME280;46439;51.164;13.572;2023-04-03T02:12:09;101253.98;;;1.60;78.21
60611;BME280;46439;51.164;13.572;2023-04-03T02:14:38;101255.95;;;1.50;77.93
60611;BME280;46439;51.164;13.572;2023-04-03T02:17:26;101260.55;;;1.56;78.18
60611;BME280;46439;51.164;13.572;2023-04-03T02:19:55;101257.60;;;1.62;78.27
60611;BME280;46439;51.164;13.572;2023-04-03T02:22:24;101265.16;;;1.53;78.37
60611;BME280;46439;51.164;13.572;2023-04-03T02:24:54;101269.46;;;1.49;78.13
60611;BME280;46439;51.164;13.572;2023-04-03T02:27:23;101268.14;;;1.45;78.18
60611;BME280;46439;51.164;13.572;2023-04-03T02:29:52;101266.95;;;1.41;78.07
60611;BME280;46439;51.164;13.572;2023-04-03T02:32:20;101267.58;;;1.42;77.77
60611;BME280;46439;51.164;13.572;2023-04-03T02:34:49;101268.03;;;1.40;78.15
60611;BME280;46439;51.164;13.572;2023-04-03T02:37:17;101271.08;;;1.40;78.07
60611;BME280;46439;51.164;13.572;2023-04-03T02:39:46;101271.81;;;1.33;77.93
60611;BME280;46439;51.164;13.572;2023-04-03T02:42:15;101275.81;;;1.22;77.80
60611;BME280;46439;51.164;13.572;2023-04-03T02:44:43;101276.05;;;1.14;77.62
60611;BME280;46439;51.164;13.572;2023-04-03T02:47:12;101276.30;;;1.10;77.88
60611;BME280;46439;51.164;13.572;2023-04-03T02:49:41;101277.02;;;1.06;77.89
60611;BME280;46439;51.164;13.572;2023-04-03T02:52:11;101278.23;;;1.01;77.59
60611;BME280;46439;51.164;13.572;2023-04-03T02:54:40;101281.23;;;0.94;77.66
60611;BME280;46439;51.164;13.572;2023-04-03T02:57:08;101280.07;;;0.89;77.65
60611;BME280;46439;51.164;13.572;2023-04-03T03:00:05;101280.63;;;0.86;77.70
60611;BME280;46439;51.164;13.572;2023-04-03T03:02:34;101283.37;;;0.78;77.47
60611;BME280;46439;51.164;13.572;2023-04-03T03:05:04;101284.70;;;0.70;77.63
60611;BME280;46439;51.164;13.572;2023-04-03T03:07:33;101287.14;;;0.64;77.44
60611;BME280;46439;51.164;13.572;2023-04-03T03:10:02;101290.59;;;0.59;77.67
60611;BME280;46439;51.164;13.572;2023-04-03T03:12:31;101289.17;;;0.55;77.72
60611;BME280;46439;51.164;13.572;2023-04-03T03:15:00;101292.52;;;0.52;77.52
60611;BME280;46439;51.164;13.572;2023-04-03T03:17:28;101293.90;;;0.49;77.55
60611;BME280;46439;51.164;13.572;2023-04-03T03:19:57;101296.06;;;0.46;77.60
60611;BME280;46439;51.164;13.572;2023-04-03T03:22:27;101294.10;;;0.46;77.57
60611;BME280;46439;51.164;13.572;2023-04-03T03:24:56;101298.83;;;0.44;77.58
60611;BME280;46439;51.164;13.572;2023-04-03T03:27:24;101299.62;;;0.45;77.89
60611;BME280;46439;51.164;13.572;2023-04-03T03:29:53;101304.27;;;0.41;77.80
60611;BME280;46439;51.164;13.572;2023-04-03T03:32:21;101306.39;;;0.38;77.68
60611;BME280;46439;51.164;13.572;2023-04-03T03:34:50;101305.15;;;0.38;77.87
60611;BME280;46439;51.164;13.572;2023-04-03T03:37:18;101306.68;;;0.32;77.62
60611;BME280;46439;51.164;13.572;2023-04-03T03:39:47;101310.89;;;0.26;77.56
60611;BME280;46439;51.164;13.572;2023-04-03T03:42:15;101312.64;;;0.23;77.69
60611;BME280;46439;51.164;13.572;2023-04-03T03:44:44;101312.39;;;0.17;77.71
60611;BME280;46439;51.164;13.572;2023-04-03T03:47:13;101314.13;;;0.14;77.54
60611;BME280;46439;51.164;13.572;2023-04-03T03:49:42;101317.61;;;0.12;77.77
60611;BME280;46439;51.164;13.572;2023-04-03T03:52:10;101320.07;;;0.09;77.55
60611;BME280;46439;51.164;13.572;2023-04-03T03:54:39;101318.79;;;0.03;77.65
60611;BME280;46439;51.164;13.572;2023-04-03T03:57:08;101316.33;;;-0.01;77.62
60611;BME280;46439;51.164;13.572;2023-04-03T03:59:36;101315.27;;;-0.05;77.56
60611;BME280;46439;51.164;13.572;2023-04-03T04:02:05;101317.68;;;-0.07;77.51
60611;BME280;46439;51.164;13.572;2023-04-03T04:04:33;101321.00;;;-0.10;77.75
60611;BME280;46439;51.164;13.572;2023-04-03T04:07:02;101323.72;;;-0.14;77.60
60611;BME280;46439;51.164;13.572;2023-04-03T04:09:30;101324.44;;;-0.22;77.50
60611;BME280;46439;51.164;13.572;2023-04-03T04:11:59;101324.29;;;-0.30;77.65
60611;BME280;46439;51.164;13.572;2023-04-03T04:14:28;101324.73;;;-0.35;77.58
60611;BME280;46439;51.164;13.572;2023-04-03T04:16:56;101327.66;;;-0.37;77.72
60611;BME280;46439;51.164;13.572;2023-04-03T04:19:25;101329.61;;;-0.41;77.64
60611;BME280;46439;51.164;13.572;2023-04-03T04:21:53;101328.09;;;-0.46;77.74
60611;BME280;46439;51.164;13.572;2023-04-03T04:24:22;101329.67;;;-0.49;77.82
60611;BME280;46439;51.164;13.572;2023-04-03T04:26:53;101331.60;;;-0.53;77.88
60611;BME280;46439;51.164;13.572;2023-04-03T04:29:22;101337.10;;;-0.53;77.83
60611;BME280;46439;51.164;13.572;2023-04-03T04:31:50;101341.63;;;-0.55;78.06
60611;BME280;46439;51.164;13.572;2023-04-03T04:34:19;101344.15;;;-0.56;77.98
60611;BME280;46439;51.164;13.572;2023-04-03T04:36:47;101343.86;;;-0.58;77.96
60611;BME280;46439;51.164;13.572;2023-04-03T04:39:16;101345.03;;;-0.60;78.17
60611;BME280;46439;51.164;13.572;2023-04-03T04:41:45;101346.34;;;-0.62;78.00
60611;BME280;46439;51.164;13.572;2023-04-03T04:44:14;101345.88;;;-0.63;78.07
60611;BME280;46439;51.164;13.572;2023-04-03T04:46:44;101351.67;;;-0.66;78.10
60611;BME280;46439;51.164;13.572;2023-04-03T04:49:13;101353.06;;;-0.66;78.37
60611;BME280;46439;51.164;13.572;2023-04-03T04:51:42;101356.61;;;-0.66;78.24
60611;BME280;46439;51.164;13.572;2023-04-03T04:54:11;101354.61;;;-0.61;78.40
60611;BME280;46439;51.164;13.572;2023-04-03T04:56:40;101358.52;;;-0.58;78.55
60611;BME280;46439;51.164;13.572;2023-04-03T04:59:09;101358.42;;;-0.59;78.55
60611;BME280;46439;51.164;13.572;2023-04-03T05:01:38;101360.45;;;-0.61;78.59
60611;BME280;46439;51.164;13.572;2023-04-03T05:04:06;101361.43;;;-0.63;78.57
60611;BME280;46439;51.164;13.572;2023-04-03T05:06:35;101363.98;;;-0.65;78.38
60611;BME280;46439;51.164;13.572;2023-04-03T05:09:04;101369.16;;;-0.66;78.51
60611;BME280;46439;51.164;13.572;2023-04-03T05:11:33;101365.77;;;-0.65;78.43
60611;BME280;46439;51.164;13.572;2023-04-03T05:14:02;101370.84;;;-0.64;78.71
60611;BME280;46439;51.164;13.572;2023-04-03T05:16:33;101372.58;;;-0.63;78.68
60611;BME280;46439;51.164;13.572;2023-04-03T05:19:02;101370.48;;;-0.60;78.73
60611;BME280;46439;51.164;13.572;2023-04-03T05:21:32;101371.95;;;-0.57;78.81
60611;BME280;46439;51.164;13.572;2023-04-03T05:24:01;101372.69;;;-0.58;78.56
60611;BME280;46439;51.164;13.572;2023-04-03T05:26:31;101374.34;;;-0.59;78.84
60611;BME280;46439;51.164;13.572;2023-04-03T05:29:00;101376.73;;;-0.53;78.90
60611;BME280;46439;51.164;13.572;2023-04-03T05:31:28;101380.05;;;-0.53;79.03
60611;BME280;46439;51.164;13.572;2023-04-03T05:33:58;101380.52;;;-0.51;79.15
60611;BME280;46439;51.164;13.572;2023-04-03T05:36:26;101384.68;;;-0.46;79.11
60611;BME280;46439;51.164;13.572;2023-04-03T05:38:55;101386.95;;;-0.45;79.18
60611;BME280;46439;51.164;13.572;2023-04-03T05:41:24;101388.71;;;-0.45;79.05
60611;BME280;46439;51.164;13.572;2023-04-03T05:43:53;101387.10;;;-0.41;79.21
60611;BME280;46439;51.164;13.572;2023-04-03T05:46:21;101388.79;;;-0.35;79.55
60611;BME280;46439;51.164;13.572;2023-04-03T05:48:50;101391.67;;;-0.33;79.40
60611;BME280;46439;51.164;13.572;2023-04-03T05:51:22;101392.83;;;-0.31;79.36
60611;BME280;46439;51.164;13.572;2023-04-03T05:53:55;101394.03;;;-0.34;79.46
60611;BME280;46439;51.164;13.572;2023-04-03T05:56:25;101396.41;;;-0.29;79.62
60611;BME280;46439;51.164;13.572;2023-04-03T05:58:54;101396.14;;;-0.27;79.40
60611;BME280;46439;51.164;13.572;2023-04-03T06:01:23;101397.64;;;-0.21;79.63
60611;BME280;46439;51.164;13.572;2023-04-03T06:03:52;101397.85;;;-0.11;79.85
60611;BME280;46439;51.164;13.572;2023-04-03T06:06:21;101398.88;;;-0.10;79.79
60611;BME280;46439;51.164;13.572;2023-04-03T06:08:50;101401.09;;;-0.08;79.93
60611;BME280;46439;51.164;13.572;2023-04-03T06:11:19;101405.70;;;-0.05;79.88
60611;BME280;46439;51.164;13.572;2023-04-03T06:13:47;101410.52;;;-0.02;79.92
60611;BME280;46439;51.164;13.572;2023-04-03T06:16:16;101412.27;;;-0.02;80.05
60611;BME280;46439;51.164;13.572;2023-04-03T06:18:46;101415.77;;;-0.01;79.91
60611;BME280;46439;51.164;13.572;2023-04-03T06:21:14;101411.00;;;0.03;79.87
60611;BME280;46439;51.164;13.572;2023-04-03T06:23:43;101418.59;;;0.14;80.16
60611;BME280;46439;51.164;13.572;2023-04-03T06:26:12;101418.91;;;0.18;80.31
60611;BME280;46439;51.164;13.572;2023-04-03T06:28:40;101419.84;;;0.17;80.39
60611;BME280;46439;51.164;13.572;2023-04-03T06:31:09;101421.11;;;0.17;80.14
60611;BME280;46439;51.164;13.572;2023-04-03T06:33:37;101419.80;;;0.18;80.12
60611;BME280;46439;51.164;13.572;2023-04-03T06:36:07;101420.41;;;0.24;80.27
60611;BME280;46439;51.164;13.572;2023-04-03T06:38:36;101423.59;;;0.31;80.24
60611;BME280;46439;51.164;13.572;2023-04-03T06:41:04;101423.86;;;0.40;80.58
60611;BME280;46439;51.164;13.572;2023-04-03T06:43:33;101424.73;;;0.48;80.79
60611;BME280;46439;51.164;13.572;2023-04-03T06:46:01;101427.86;;;0.55;80.87
60611;BME280;46439;51.164;13.572;2023-04-03T06:48:30;101425.77;;;0.59;80.77
60611;BME280;46439;51.164;13.572;2023-04-03T06:50:58;101427.21;;;0.65;80.89
60611;BME280;46439;51.164;13.572;2023-04-03T06:53:27;101423.35;;;0.67;80.61
60611;BME280;46439;51.164;13.572;2023-04-03T06:55:55;101427.73;;;0.72;80.90
60611;BME280;46439;51.164;13.572;2023-04-03T06:58:24;101431.70;;;0.74;80.70
60611;BME280;46439;51.164;13.572;2023-04-03T07:00:52;101432.34;;;0.75;80.82
60611;BME280;46439;51.164;13.572;2023-04-03T07:03:21;101431.60;;;0.73;80.80
60611;BME280;46439;51.164;13.572;2023-04-03T07:05:49;101432.89;;;0.75;80.49
60611;BME280;46439;51.164;13.572;2023-04-03T07:08:17;101436.33;;;0.77;80.67
60611;BME280;46439;51.164;13.572;2023-04-03T07:10:46;101437.07;;;0.83;80.56
60611;BME280;46439;51.164;13.572;2023-04-03T07:13:15;101445.17;;;0.98;81.18
60611;BME280;46439;51.164;13.572;2023-04-03T07:15:43;101448.75;;;1.04;81.18
60611;BME280;46439;51.164;13.572;2023-04-03T07:18:12;101451.70;;;1.12;81.20
60611;BME280;46439;51.164;13.572;2023-04-03T07:20:41;101452.36;;;1.16;81.15
60611;BME280;46439;51.164;13.572;2023-04-03T07:23:10;101454.60;;;1.14;80.81
60611;BME280;46439;51.164;13.572;2023-04-03T07:25:40;101454.06;;;1.11;80.71
60611;BME280;46439;51.164;13.572;2023-04-03T07:28:10;101456.60;;;1.20;80.75
60611;BME280;46439;51.164;13.572;2023-04-03T07:30:45;101453.13;;;1.29;81.08
60611;BME280;46439;51.164;13.572;2023-04-03T07:33:15;101450.52;;;1.35;80.87
60611;BME280;46439;51.164;13.572;2023-04-03T07:35:45;101456.48;;;1.39;81.05
60611;BME280;46439;51.164;13.572;2023-04-03T07:38:14;101456.11;;;1.43;80.91
60611;BME280;46439;51.164;13.572;2023-04-03T07:40:48;101460.09;;;1.48;80.80
60611;BME280;46439;51.164;13.572;2023-04-03T07:43:17;101461.75;;;1.56;80.74
60611;BME280;46439;51.164;13.572;2023-04-03T07:45:46;101460.56;;;1.59;81.04
60611;BME280;46439;51.164;13.572;2023-04-03T07:48:19;101465.88;;;1.65;81.12
60611;BME280;46439;51.164;13.572;2023-04-03T07:50:48;101466.90;;;1.73;81.11
60611;BME280;46439;51.164;13.572;2023-04-03T07:53:17;101464.71;;;1.80;81.00
60611;BME280;46439;51.164;13.572;2023-04-03T07:55:47;101466.80;;;1.90;81.27
60611;BME280;46439;51.164;13.572;2023-04-03T07:58:17;101470.23;;;2.02;81.26
60611;BME280;46439;51.164;13.572;2023-04-03T08:00:46;101463.02;;;2.01;80.82
60611;BME280;46439;51.164;13.572;2023-04-03T08:03:15;101462.45;;;1.99;80.67
60611;BME280;46439;51.164;13.572;2023-04-03T08:05:48;101464.88;;;2.03;80.78
60611;BME280;46439;51.164;13.572;2023-04-03T08:08:19;101462.97;;;2.08;80.82
60611;BME280;46439;51.164;13.572;2023-04-03T08:10:52;101464.80;;;2.10;80.84
60611;BME280;46439;51.164;13.572;2023-04-03T08:13:21;101462.96;;;2.15;80.80
60611;BME280;46439;51.164;13.572;2023-04-03T08:15:49;101463.65;;;2.31;80.97
60611;BME280;46439;51.164;13.572;2023-04-03T08:18:19;101466.25;;;2.47;81.14
60611;BME280;46439;51.164;13.572;2023-04-03T08:20:50;101466.55;;;2.57;81.03
60611;BME280;46439;51.164;13.572;2023-04-03T08:23:19;101466.83;;;2.68;81.43
60611;BME280;46439;51.164;13.572;2023-04-03T08:25:48;101467.08;;;2.69;80.88
60611;BME280;46439;51.164;13.572;2023-04-03T08:28:17;101469.96;;;2.65;80.80
60611;BME280;46439;51.164;13.572;2023-04-03T08:30:45;101471.08;;;2.71;80.84
60611;BME280;46439;51.164;13.572;2023-04-03T08:33:14;101475.26;;;2.79;80.58
60611;BME280;46439;51.164;13.572;2023-04-03T08:35:43;101477.55;;;2.88;80.74
60611;BME280;46439;51.164;13.572;2023-04-03T08:38:12;101477.42;;;2.87;80.81
60611;BME280;46439;51.164;13.572;2023-04-03T08:40:42;101472.77;;;2.87;80.44
60611;BME280;46439;51.164;13.572;2023-04-03T08:43:27;101473.09;;;2.88;80.67
60611;BME280;46439;51.164;13.572;2023-04-03T08:46:01;101469.80;;;2.93;80.50
60611;BME280;46439;51.164;13.572;2023-04-03T08:48:33;101469.48;;;3.07;80.46
60611;BME280;46439;51.164;13.572;2023-04-03T08:51:08;101468.03;;;3.25;80.92
60611;BME280;46439;51.164;13.572;2023-04-03T08:53:42;101468.15;;;3.37;80.83
60611;BME280;46439;51.164;13.572;2023-04-03T08:56:14;101466.29;;;3.41;80.46
60611;BME280;46439;51.164;13.572;2023-04-03T08:58:50;101475.35;;;3.42;80.40
60611;BME280;46439;51.164;13.572;2023-04-03T09:01:26;101472.59;;;3.38;79.92
60611;BME280;46439;51.164;13.572;2023-04-03T09:03:55;101476.83;;;3.47;80.40
60611;BME280;46439;51.164;13.572;2023-04-03T09:06:27;101475.13;;;3.59;80.72
60611;BME280;46439;51.164;13.572;2023-04-03T09:09:10;101472.05;;;3.66;80.40
60611;BME280;46439;51.164;13.572;2023-04-03T09:11:46;101471.48;;;3.72;80.46
60611;BME280;46439;51.164;13.572;2023-04-03T09:14:25;101472.21;;;3.80;80.41
60611;BME280;46439;51.164;13.572;2023-04-03T09:17:02;101470.03;;;3.90;80.09
60611;BME280;46439;51.164;13.572;2023-04-03T09:19:38;101469.92;;;3.91;80.40
60611;BME280;46439;51.164;13.572;2023-04-03T09:22:17;101469.70;;;3.83;79.78
60611;BME280;46439;51.164;13.572;2023-04-03T09:24:52;101467.79;;;3.72;79.39
60611;BME280;46439;51.164;13.572;2023-04-03T09:27:25;101470.08;;;3.72;79.34
60611;BME280;46439;51.164;13.572;2023-04-03T09:29:56;101472.73;;;3.72;79.19
60611;BME280;46439;51.164;13.572;2023-04-03T09:32:29;101472.64;;;3.74;79.25
60611;BME280;46439;51.164;13.572;2023-04-03T09:35:01;101473.16;;;3.79;79.39
60611;BME280;46439;51.164;13.572;2023-04-03T09:37:42;101470.96;;;3.78;78.92
60611;BME280;46439;51.164;13.572;2023-04-03T09:40:33;101467.73;;;3.81;78.69
60611;BME280;46439;51.164;13.572;2023-04-03T09:43:18;101466.95;;;4.01;79.16
60611;BME280;46439;51.164;13.572;2023-04-03T09:45:49;101466.16;;;4.30;79.87
60611;BME280;46439;51.164;13.572;2023-04-03T09:48:20;101469.45;;;4.46;79.67
60611;BME280;46439;51.164;13.572;2023-04-03T09:51:00;101467.05;;;4.57;80.07
60611;BME280;46439;51.164;13.572;2023-04-03T09:53:40;101460.14;;;4.73;79.82
60611;BME280;46439;51.164;13.572;2023-04-03T09:56:22;101456.77;;;4.91;80.08
60611;BME280;46439;51.164;13.572;2023-04-03T09:59:03;101459.69;;;5.08;79.90
60611;BME280;46439;51.164;13.572;2023-04-03T10:01:36;101458.51;;;5.12;79.41
60611;BME280;46439;51.164;13.572;2023-04-03T10:04:11;101451.42;;;5.03;78.47
60611;BME280;46439;51.164;13.572;2023-04-03T10:06:42;101451.58;;;5.01;77.93
60611;BME280;46439;51.164;13.572;2023-04-03T10:09:21;101452.52;;;5.05;78.01
60611;BME280;46439;51.164;13.572;2023-04-03T10:12:01;101449.85;;;5.16;78.16
60611;BME280;46439;51.164;13.572;2023-04-03T10:14:30;101452.35;;;5.16;77.77
60611;BME280;46439;51.164;13.572;2023-04-03T10:17:05;101455.44;;;5.10;77.38
60611;BME280;46439;51.164;13.572;2023-04-03T10:19:43;101452.53;;;4.95;76.60
60611;BME280;46439;51.164;13.572;2023-04-03T10:22:21;101449.86;;;4.79;75.95
60611;BME280;46439;51.164;13.572;2023-04-03T10:25:03;101441.67;;;4.76;76.12
60611;BME280;46439;51.164;13.572;2023-04-03T10:27:39;101441.14;;;4.74;75.77
60611;BME280;46439;51.164;13.572;2023-04-03T10:30:32;101437.09;;;4.76;75.93
60611;BME280;46439;51.164;13.572;2023-04-03T10:33:16;101438.09;;;4.87;76.10
60611;BME280;46439;51.164;13.572;2023-04-03T10:35:57;101437.13;;;5.04;76.29
60611;BME280;46439;51.164;13.572;2023-04-03T10:38:36;101434.59;;;5.20;76.43
60611;BME280;46439;51.164;13.572;2023-04-03T10:41:15;101439.75;;;5.30;76.28
60611;BME280;46439;51.164;13.572;2023-04-03T10:43:53;101435.56;;;5.19;75.46
60611;BME280;46439;51.164;13.572;2023-04-03T10:46:30;101439.87;;;5.18;75.19
60611;BME280;46439;51.164;13.572;2023-04-03T10:49:10;101435.05;;;5.21;75.19
60611;BME280;46439;51.164;13.572;2023-04-03T10:51:43;101437.08;;;5.23;74.98
60611;BME280;46439;51.164;13.572;2023-04-03T10:54:17;101428.62;;;5.16;74.64
60611;BME280;46439;51.164;13.572;2023-04-03T10:56:52;101429.25;;;5.17;74.28
60611;BME280;46439;51.164;13.572;2023-04-03T10:59:26;101426.86;;;5.20;74.15
60611;BME280;46439;51.164;13.572;2023-04-03T11:01:58;101426.50;;;5.18;73.87
60611;BME280;46439;51.164;13.572;2023-04-03T11:04:34;101428.66;;;5.10;73.43
60611;BME280;46439;51.164;13.572;2023-04-03T11:07:04;101424.27;;;5.12;73.20
60611;BME280;46439;51.164;13.572;2023-04-03T11:09:37;101424.00;;;5.03;72.66
60611;BME280;46439;51.164;13.572;2023-04-03T11:12:12;101423.98;;;5.03;72.61
60611;BME280;46439;51.164;13.572;2023-04-03T11:14:42;101418.49;;;5.13;72.95
60611;BME280;46439;51.164;13.572;2023-04-03T11:17:21;101414.75;;;5.25;73.11
60611;BME280;46439;51.164;13.572;2023-04-03T11:19:59;101413.21;;;5.35;73.24
60611;BME280;46439;51.164;13.572;2023-04-03T11:22:32;101412.98;;;5.48;73.25
60611;BME280;46439;51.164;13.572;2023-04-03T11:25:15;101407.92;;;5.53;72.98
60611;BME280;46439;51.164;13.572;2023-04-03T11:27:52;101409.34;;;5.59;72.82
60611;BME280;46439;51.164;13.572;2023-04-03T11:30:25;101409.30;;;5.62;72.62
60611;BME280;46439;51.164;13.572;2023-04-03T11:33:23;101406.98;;;5.72;72.56
60611;BME280;46439;51.164;13.572;2023-04-03T11:35:56;101399.61;;;5.84;72.62
60611;BME280;46439;51.164;13.572;2023-04-03T11:38:28;101399.57;;;6.07;72.88
60611;BME280;46439;51.164;13.572;2023-04-03T11:40:59;101404.78;;;6.22;72.83
60611;BME280;46439;51.164;13.572;2023-04-03T11:43:30;101406.20;;;6.17;71.81
60611;BME280;46439;51.164;13.572;2023-04-03T11:46:01;101405.82;;;6.12;71.49
60611;BME280;46439;51.164;13.572;2023-04-03T11:48:51;101404.59;;;6.12;71.17
60611;BME280;46439;51.164;13.572;2023-04-03T11:51:53;101399.77;;;6.02;70.63
60611;BME280;46439;51.164;13.572;2023-04-03T11:54:45;101394.29;;;6.02;70.45
60611;BME280;46439;51.164;13.572;2023-04-03T12:00:48;101390.44;;;5.93;69.89
60611;BME280;46439;51.164;13.572;2023-04-03T12:04:03;101393.06;;;5.91;69.62
60611;BME280;46439;51.164;13.572;2023-04-03T12:10:17;101387.73;;;5.83;69.02
60611;BME280;46439;51.164;13.572;2023-04-03T12:12:57;101386.76;;;5.87;69.04
60611;BME280;46439;51.164;13.572;2023-04-03T12:15:53;101389.06;;;5.89;68.72
60611;BME280;46439;51.164;13.572;2023-04-03T12:18:42;101387.11;;;5.94;68.86
60611;BME280;46439;51.164;13.572;2023-04-03T12:21:19;101384.41;;;6.02;68.82
60611;BME280;46439;51.164;13.572;2023-04-03T12:24:15;101385.59;;;5.96;68.25
60611;BME280;46439;51.164;13.572;2023-04-03T12:27:01;101383.13;;;5.88;67.97
60611;BME280;46439;51.164;13.572;2023-04-03T12:29:35;101387.46;;;5.85;67.40
60611;BME280;46439;51.164;13.572;2023-04-03T12:32:14;101385.48;;;5.80;67.40
60611;BME280;46439;51.164;13.572;2023-04-03T12:35:07;101384.79;;;5.75;67.01
60611;BME280;46439;51.164;13.572;2023-04-03T12:40:34;101379.20;;;5.85;67.22
60611;BME280;46439;51.164;13.572;2023-04-03T12:43:20;101378.61;;;5.81;66.75
60611;BME280;46439;51.164;13.572;2023-04-03T12:45:58;101382.12;;;5.72;66.26
60611;BME280;46439;51.164;13.572;2023-04-03T12:48:31;101377.30;;;5.70;66.24
60611;BME280;46439;51.164;13.572;2023-04-03T12:51:00;101376.55;;;5.80;66.39
60611;BME280;46439;51.164;13.572;2023-04-03T12:53:33;101373.31;;;5.90;66.44
60611;BME280;46439;51.164;13.572;2023-04-03T12:56:19;101383.74;;;5.99;66.47
60611;BME280;46439;51.164;13.572;2023-04-03T12:58:50;101379.79;;;5.99;66.33
60611;BME280;46439;51.164;13.572;2023-04-03T13:01:22;101377.11;;;5.92;65.82
60611;BME280;46439;51.164;13.572;2023-04-03T13:03:51;101378.42;;;5.71;64.98
60611;BME280;46439;51.164;13.572;2023-04-03T13:06:23;101378.13;;;5.61;64.90
60611;BME280;46439;51.164;13.572;2023-04-03T13:08:56;101381.84;;;5.56;64.77
60611;BME280;46439;51.164;13.572;2023-04-03T13:11:36;101378.16;;;5.48;64.65
60611;BME280;46439;51.164;13.572;2023-04-03T13:14:16;101377.86;;;5.42;64.40
60611;BME280;46439;51.164;13.572;2023-04-03T13:16:54;101377.04;;;5.41;64.54
60611;BME280;46439;51.164;13.572;2023-04-03T13:19:24;101386.20;;;5.43;64.55
60611;BME280;46439;51.164;13.572;2023-04-03T13:22:01;101386.86;;;5.36;64.03
60611;BME280;46439;51.164;13.572;2023-04-03T13:24:32;101387.83;;;5.25;63.66